Ashford, Washington
Current Conditions -  °F | °C
As of 2:29 AM on Saturday 01 Nov 2014 (Local Time) from KGRF Reporting Station
Overcast Overcast  
Wind Chill: 43°   Ceiling: 900
Heat Index: 43°   Visibility: 10mi
Dew Point: 43°   Wind: 1mph
Humidity: 100%   Direction: 120°ESE
Pressure: 29.84"   Gusts: NA
Location:  46.76°N, 122.03°W
Report Text: KGRF 010929Z AUTO 12001KT 10SM FEW004 OVC009 06/06 A2984 RMK AO2
Loading
Personal Weather Stations






























Interactive Weather Map
Tropical Storm Tracking
New forecast layout! Learn more

10-Day Weather Forecast

Advertisements
Track Severe Weather on mobile